sensor_id;sensor_type;location;lat;lon;timestamp;P1;durP1;ratioP1;P2;durP2;ratioP2
25952;SDS011;13750;50.804;8.764;2022-08-02T00:01:33;0.83;;;0.83;;
25952;SDS011;13750;50.804;8.764;2022-08-02T00:03:59;0.85;;;0.85;;
25952;SDS011;13750;50.804;8.764;2022-08-02T00:06:25;1.27;;;0.80;;
25952;SDS011;13750;50.804;8.764;2022-08-02T00:08:51;0.83;;;0.80;;
25952;SDS011;13750;50.804;8.764;2022-08-02T00:11:18;0.82;;;0.82;;
25952;SDS011;13750;50.804;8.764;2022-08-02T00:13:44;1.10;;;1.00;;
25952;SDS011;13750;50.804;8.764;2022-08-02T00:16:09;1.10;;;1.00;;
25952;SDS011;13750;50.804;8.764;2022-08-02T00:18:35;0.70;;;0.70;;
25952;SDS011;13750;50.804;8.764;2022-08-02T00:21:01;1.00;;;1.00;;
25952;SDS011;13750;50.804;8.764;2022-08-02T00:23:26;0.70;;;0.70;;
25952;SDS011;13750;50.804;8.764;2022-08-02T00:25:52;0.90;;;0.90;;
25952;SDS011;13750;50.804;8.764;2022-08-02T00:28:17;1.20;;;1.10;;
25952;SDS011;13750;50.804;8.764;2022-08-02T00:30:43;1.03;;;1.00;;
25952;SDS011;13750;50.804;8.764;2022-08-02T00:33:09;1.63;;;1.10;;
25952;SDS011;13750;50.804;8.764;2022-08-02T00:35:34;1.20;;;1.03;;
25952;SDS011;13750;50.804;8.764;2022-08-02T00:38:01;1.00;;;1.00;;
25952;SDS011;13750;50.804;8.764;2022-08-02T00:40:27;1.17;;;1.00;;
25952;SDS011;13750;50.804;8.764;2022-08-02T00:43:00;1.17;;;1.03;;
25952;SDS011;13750;50.804;8.764;2022-08-02T00:45:31;0.93;;;0.93;;
25952;SDS011;13750;50.804;8.764;2022-08-02T00:48:04;1.02;;;1.00;;
25952;SDS011;13750;50.804;8.764;2022-08-02T00:50:32;1.20;;;1.10;;
25952;SDS011;13750;50.804;8.764;2022-08-02T00:52:59;1.42;;;1.10;;
25952;SDS011;13750;50.804;8.764;2022-08-02T00:55:25;1.37;;;1.27;;
25952;SDS011;13750;50.804;8.764;2022-08-02T00:57:51;1.42;;;1.27;;
25952;SDS011;13750;50.804;8.764;2022-08-02T01:00:18;1.35;;;1.10;;
25952;SDS011;13750;50.804;8.764;2022-08-02T01:05:10;1.30;;;1.20;;
25952;SDS011;13750;50.804;8.764;2022-08-02T01:07:36;1.20;;;1.10;;
25952;SDS011;13750;50.804;8.764;2022-08-02T01:10:02;1.33;;;1.15;;
25952;SDS011;13750;50.804;8.764;2022-08-02T01:12:29;1.35;;;1.20;;
25952;SDS011;13750;50.804;8.764;2022-08-02T01:14:55;1.37;;;1.20;;
25952;SDS011;13750;50.804;8.764;2022-08-02T01:33:49;1.10;;;1.08;;
25952;SDS011;13750;50.804;8.764;2022-08-02T01:36:20;1.40;;;1.30;;
25952;SDS011;13750;50.804;8.764;2022-08-02T01:38:49;1.13;;;1.08;;
25952;SDS011;13750;50.804;8.764;2022-08-02T01:41:19;1.45;;;1.35;;
25952;SDS011;13750;50.804;8.764;2022-08-02T01:43:48;1.58;;;1.35;;
25952;SDS011;13750;50.804;8.764;2022-08-02T01:46:17;1.08;;;1.00;;
25952;SDS011;13750;50.804;8.764;2022-08-02T01:48:45;1.10;;;1.00;;
25952;SDS011;13750;50.804;8.764;2022-08-02T01:51:13;1.10;;;1.00;;
25952;SDS011;13750;50.804;8.764;2022-08-02T01:53:42;0.90;;;0.90;;
25952;SDS011;13750;50.804;8.764;2022-08-02T01:56:12;1.15;;;1.00;;
25952;SDS011;13750;50.804;8.764;2022-08-02T01:58:40;1.25;;;1.10;;
25952;SDS011;13750;50.804;8.764;2022-08-02T02:01:08;1.10;;;1.00;;
25952;SDS011;13750;50.804;8.764;2022-08-02T02:03:37;0.90;;;0.90;;
25952;SDS011;13750;50.804;8.764;2022-08-02T02:06:05;1.00;;;1.00;;
25952;SDS011;13750;50.804;8.764;2022-08-02T02:08:35;0.80;;;0.80;;
25952;SDS011;13750;50.804;8.764;2022-08-02T02:11:02;0.90;;;0.90;;
25952;SDS011;13750;50.804;8.764;2022-08-02T02:13:29;1.15;;;1.05;;
25952;SDS011;13750;50.804;8.764;2022-08-02T02:15:56;1.40;;;1.30;;
25952;SDS011;13750;50.804;8.764;2022-08-02T02:18:28;1.40;;;1.30;;
25952;SDS011;13750;50.804;8.764;2022-08-02T02:23:20;1.60;;;1.50;;
25952;SDS011;13750;50.804;8.764;2022-08-02T02:25:46;1.60;;;1.50;;
25952;SDS011;13750;50.804;8.764;2022-08-02T02:28:13;1.45;;;1.25;;
25952;SDS011;13750;50.804;8.764;2022-08-02T02:30:48;1.60;;;1.50;;
25952;SDS011;13750;50.804;8.764;2022-08-02T02:33:20;1.42;;;1.33;;
25952;SDS011;13750;50.804;8.764;2022-08-02T02:35:49;1.58;;;1.48;;
25952;SDS011;13750;50.804;8.764;2022-08-02T02:38:15;1.70;;;1.60;;
25952;SDS011;13750;50.804;8.764;2022-08-02T02:40:44;1.65;;;1.40;;
25952;SDS011;13750;50.804;8.764;2022-08-02T02:43:11;1.83;;;1.60;;
25952;SDS011;13750;50.804;8.764;2022-08-02T02:45:37;1.77;;;1.67;;
25952;SDS011;13750;50.804;8.764;2022-08-02T02:50:30;1.90;;;1.70;;
25952;SDS011;13750;50.804;8.764;2022-08-02T02:52:57;1.50;;;1.40;;
25952;SDS011;13750;50.804;8.764;2022-08-02T02:55:24;1.80;;;1.30;;
25952;SDS011;13750;50.804;8.764;2022-08-02T02:57:52;1.77;;;1.60;;
25952;SDS011;13750;50.804;8.764;2022-08-02T03:00:19;1.90;;;1.80;;
25952;SDS011;13750;50.804;8.764;2022-08-02T03:03:05;1.50;;;1.40;;
25952;SDS011;13750;50.804;8.764;2022-08-02T03:05:31;1.63;;;1.52;;
25952;SDS011;13750;50.804;8.764;2022-08-02T03:07:57;1.60;;;1.50;;
25952;SDS011;13750;50.804;8.764;2022-08-02T03:10:23;1.77;;;1.67;;
25952;SDS011;13750;50.804;8.764;2022-08-02T03:12:49;1.73;;;1.63;;
25952;SDS011;13750;50.804;8.764;2022-08-02T03:15:14;2.07;;;1.97;;
25952;SDS011;13750;50.804;8.764;2022-08-02T03:17:45;1.83;;;1.73;;
25952;SDS011;13750;50.804;8.764;2022-08-02T03:20:15;1.73;;;1.63;;
25952;SDS011;13750;50.804;8.764;2022-08-02T03:22:42;1.88;;;1.73;;
25952;SDS011;13750;50.804;8.764;2022-08-02T03:27:35;1.60;;;1.50;;
25952;SDS011;13750;50.804;8.764;2022-08-02T03:30:02;1.80;;;1.50;;
25952;SDS011;13750;50.804;8.764;2022-08-02T03:32:30;1.58;;;1.30;;
25952;SDS011;13750;50.804;8.764;2022-08-02T03:37:22;1.35;;;1.25;;
25952;SDS011;13750;50.804;8.764;2022-08-02T03:42:16;1.20;;;1.10;;
25952;SDS011;13750;50.804;8.764;2022-08-02T03:44:42;1.33;;;1.23;;
25952;SDS011;13750;50.804;8.764;2022-08-02T03:47:08;1.08;;;1.08;;
25952;SDS011;13750;50.804;8.764;2022-08-02T03:49:34;1.10;;;1.00;;
25952;SDS011;13750;50.804;8.764;2022-08-02T03:54:27;1.25;;;1.10;;
25952;SDS011;13750;50.804;8.764;2022-08-02T03:56:52;1.07;;;0.90;;
25952;SDS011;13750;50.804;8.764;2022-08-02T03:59:18;1.30;;;1.20;;
25952;SDS011;13750;50.804;8.764;2022-08-02T04:01:44;1.30;;;1.20;;
25952;SDS011;13750;50.804;8.764;2022-08-02T04:04:10;1.27;;;1.17;;
25952;SDS011;13750;50.804;8.764;2022-08-02T04:06:35;1.17;;;1.07;;
25952;SDS011;13750;50.804;8.764;2022-08-02T04:09:01;2.07;;;1.57;;
25952;SDS011;13750;50.804;8.764;2022-08-02T04:11:27;0.95;;;0.93;;
25952;SDS011;13750;50.804;8.764;2022-08-02T04:13:56;1.10;;;1.00;;
25952;SDS011;13750;50.804;8.764;2022-08-02T04:16:37;0.70;;;0.70;;
25952;SDS011;13750;50.804;8.764;2022-08-02T04:19:10;1.08;;;0.98;;
25952;SDS011;13750;50.804;8.764;2022-08-02T04:21:39;0.90;;;0.90;;
25952;SDS011;13750;50.804;8.764;2022-08-02T04:24:07;0.95;;;0.95;;
25952;SDS011;13750;50.804;8.764;2022-08-02T04:26:35;0.80;;;0.80;;
25952;SDS011;13750;50.804;8.764;2022-08-02T04:29:02;1.50;;;1.13;;
25952;SDS011;13750;50.804;8.764;2022-08-02T04:31:28;1.05;;;0.95;;
25952;SDS011;13750;50.804;8.764;2022-08-02T04:33:54;1.10;;;1.00;;
25952;SDS011;13750;50.804;8.764;2022-08-02T04:36:20;1.20;;;1.10;;
25952;SDS011;13750;50.804;8.764;2022-08-02T04:38:48;1.42;;;1.33;;
25952;SDS011;13750;50.804;8.764;2022-08-02T04:41:14;2.00;;;1.80;;
25952;SDS011;13750;50.804;8.764;2022-08-02T04:43:40;2.83;;;2.50;;
25952;SDS011;13750;50.804;8.764;2022-08-02T04:46:05;2.43;;;2.23;;
25952;SDS011;13750;50.804;8.764;2022-08-02T04:48:31;2.13;;;1.93;;
25952;SDS011;13750;50.804;8.764;2022-08-02T04:50:57;1.50;;;1.40;;
25952;SDS011;13750;50.804;8.764;2022-08-02T04:53:23;1.40;;;1.30;;
25952;SDS011;13750;50.804;8.764;2022-08-02T04:55:48;1.40;;;1.30;;
25952;SDS011;13750;50.804;8.764;2022-08-02T04:58:14;1.27;;;1.17;;
25952;SDS011;13750;50.804;8.764;2022-08-02T05:00:40;1.20;;;1.10;;
25952;SDS011;13750;50.804;8.764;2022-08-02T05:03:06;1.37;;;1.27;;
25952;SDS011;13750;50.804;8.764;2022-08-02T05:05:32;2.00;;;1.40;;
25952;SDS011;13750;50.804;8.764;2022-08-02T05:07:58;1.67;;;1.57;;
25952;SDS011;13750;50.804;8.764;2022-08-02T05:10:23;1.70;;;1.30;;
25952;SDS011;13750;50.804;8.764;2022-08-02T05:12:49;1.30;;;1.20;;
25952;SDS011;13750;50.804;8.764;2022-08-02T05:15:15;1.60;;;1.50;;
25952;SDS011;13750;50.804;8.764;2022-08-02T05:17:42;2.15;;;1.92;;
25952;SDS011;13750;50.804;8.764;2022-08-02T05:20:09;2.03;;;1.83;;
25952;SDS011;13750;50.804;8.764;2022-08-02T05:22:37;1.50;;;1.40;;
25952;SDS011;13750;50.804;8.764;2022-08-02T05:25:03;1.60;;;1.50;;
25952;SDS011;13750;50.804;8.764;2022-08-02T05:27:29;1.50;;;1.40;;
25952;SDS011;13750;50.804;8.764;2022-08-02T05:29:57;1.35;;;1.25;;
25952;SDS011;13750;50.804;8.764;2022-08-02T05:32:23;1.30;;;1.20;;
25952;SDS011;13750;50.804;8.764;2022-08-02T05:34:48;1.23;;;1.10;;
25952;SDS011;13750;50.804;8.764;2022-08-02T05:37:14;1.43;;;1.33;;
25952;SDS011;13750;50.804;8.764;2022-08-02T05:39:39;1.30;;;1.10;;
25952;SDS011;13750;50.804;8.764;2022-08-02T05:42:05;1.00;;;0.90;;
25952;SDS011;13750;50.804;8.764;2022-08-02T05:44:31;1.30;;;1.20;;
25952;SDS011;13750;50.804;8.764;2022-08-02T05:46:56;1.40;;;1.30;;
25952;SDS011;13750;50.804;8.764;2022-08-02T05:49:22;1.30;;;1.20;;
25952;SDS011;13750;50.804;8.764;2022-08-02T05:51:59;1.37;;;1.27;;
25952;SDS011;13750;50.804;8.764;2022-08-02T06:05:25;1.20;;;1.10;;
25952;SDS011;13750;50.804;8.764;2022-08-02T06:07:53;1.25;;;1.15;;
25952;SDS011;13750;50.804;8.764;2022-08-02T06:10:22;1.23;;;1.13;;
25952;SDS011;13750;50.804;8.764;2022-08-02T06:12:53;1.27;;;1.17;;
25952;SDS011;13750;50.804;8.764;2022-08-02T06:15:26;1.40;;;1.15;;
25952;SDS011;13750;50.804;8.764;2022-08-02T06:17:52;1.10;;;1.00;;
25952;SDS011;13750;50.804;8.764;2022-08-02T06:20:19;1.10;;;1.00;;
25952;SDS011;13750;50.804;8.764;2022-08-02T06:22:44;1.40;;;1.08;;
25952;SDS011;13750;50.804;8.764;2022-08-02T06:25:12;0.95;;;0.90;;
25952;SDS011;13750;50.804;8.764;2022-08-02T06:27:39;1.20;;;1.10;;
25952;SDS011;13750;50.804;8.764;2022-08-02T06:30:06;1.10;;;1.00;;
25952;SDS011;13750;50.804;8.764;2022-08-02T06:32:34;1.08;;;1.08;;
25952;SDS011;13750;50.804;8.764;2022-08-02T06:35:03;1.20;;;1.10;;
25952;SDS011;13750;50.804;8.764;2022-08-02T06:40:17;1.02;;;0.90;;
25952;SDS011;13750;50.804;8.764;2022-08-02T06:43:22;0.82;;;0.82;;
25952;SDS011;13750;50.804;8.764;2022-08-02T06:45:47;0.80;;;0.80;;
25952;SDS011;13750;50.804;8.764;2022-08-02T06:48:13;0.83;;;0.83;;
25952;SDS011;13750;50.804;8.764;2022-08-02T06:50:39;0.80;;;0.80;;
25952;SDS011;13750;50.804;8.764;2022-08-02T06:53:08;0.93;;;0.90;;
25952;SDS011;13750;50.804;8.764;2022-08-02T06:55:34;0.85;;;0.85;;
25952;SDS011;13750;50.804;8.764;2022-08-02T06:58:00;0.90;;;0.80;;
25952;SDS011;13750;50.804;8.764;2022-08-02T07:00:27;0.80;;;0.80;;
25952;SDS011;13750;50.804;8.764;2022-08-02T07:02:53;0.82;;;0.82;;
25952;SDS011;13750;50.804;8.764;2022-08-02T07:05:19;1.13;;;1.02;;
25952;SDS011;13750;50.804;8.764;2022-08-02T07:07:45;1.03;;;0.93;;
25952;SDS011;13750;50.804;8.764;2022-08-02T07:10:11;0.80;;;0.80;;
25952;SDS011;13750;50.804;8.764;2022-08-02T07:12:38;0.75;;;0.75;;
25952;SDS011;13750;50.804;8.764;2022-08-02T07:15:04;0.80;;;0.80;;
25952;SDS011;13750;50.804;8.764;2022-08-02T07:17:34;0.70;;;0.70;;
25952;SDS011;13750;50.804;8.764;2022-08-02T07:20:00;1.02;;;1.00;;
25952;SDS011;13750;50.804;8.764;2022-08-02T07:22:26;1.40;;;0.93;;
25952;SDS011;13750;50.804;8.764;2022-08-02T07:24:52;0.85;;;0.85;;
25952;SDS011;13750;50.804;8.764;2022-08-02T07:27:22;0.80;;;0.80;;
25952;SDS011;13750;50.804;8.764;2022-08-02T07:29:48;0.77;;;0.77;;
25952;SDS011;13750;50.804;8.764;2022-08-02T07:32:18;0.97;;;0.90;;
25952;SDS011;13750;50.804;8.764;2022-08-02T07:34:46;1.20;;;0.80;;
25952;SDS011;13750;50.804;8.764;2022-08-02T07:37:12;0.80;;;0.73;;
25952;SDS011;13750;50.804;8.764;2022-08-02T07:39:38;0.70;;;0.70;;
25952;SDS011;13750;50.804;8.764;2022-08-02T07:42:04;0.90;;;0.90;;
25952;SDS011;13750;50.804;8.764;2022-08-02T07:44:29;1.50;;;1.40;;
25952;SDS011;13750;50.804;8.764;2022-08-02T07:46:59;0.93;;;0.90;;
25952;SDS011;13750;50.804;8.764;2022-08-02T07:49:26;1.00;;;0.90;;
25952;SDS011;13750;50.804;8.764;2022-08-02T07:51:52;0.77;;;0.77;;
25952;SDS011;13750;50.804;8.764;2022-08-02T07:54:17;0.90;;;0.90;;
25952;SDS011;13750;50.804;8.764;2022-08-02T07:56:44;0.70;;;0.70;;
25952;SDS011;13750;50.804;8.764;2022-08-02T07:59:09;0.77;;;0.77;;
25952;SDS011;13750;50.804;8.764;2022-08-02T08:01:35;0.90;;;0.90;;
25952;SDS011;13750;50.804;8.764;2022-08-02T08:04:02;1.00;;;1.00;;
25952;SDS011;13750;50.804;8.764;2022-08-02T08:06:28;0.80;;;0.80;;
25952;SDS011;13750;50.804;8.764;2022-08-02T08:08:54;0.80;;;0.80;;
25952;SDS011;13750;50.804;8.764;2022-08-02T08:11:20;0.82;;;0.82;;
25952;SDS011;13750;50.804;8.764;2022-08-02T08:13:46;0.90;;;0.73;;
25952;SDS011;13750;50.804;8.764;2022-08-02T08:16:12;0.70;;;0.70;;
25952;SDS011;13750;50.804;8.764;2022-08-02T08:18:37;0.83;;;0.83;;
25952;SDS011;13750;50.804;8.764;2022-08-02T08:21:03;0.70;;;0.70;;
25952;SDS011;13750;50.804;8.764;2022-08-02T08:25:56;1.60;;;0.80;;
25952;SDS011;13750;50.804;8.764;2022-08-02T08:28:22;0.70;;;0.70;;
25952;SDS011;13750;50.804;8.764;2022-08-02T08:30:47;1.02;;;0.90;;
25952;SDS011;13750;50.804;8.764;2022-08-02T08:33:13;0.80;;;0.80;;
25952;SDS011;13750;50.804;8.764;2022-08-02T08:35:39;0.65;;;0.65;;
25952;SDS011;13750;50.804;8.764;2022-08-02T08:38:05;1.00;;;0.90;;
25952;SDS011;13750;50.804;8.764;2022-08-02T08:40:31;1.10;;;1.10;;
25952;SDS011;13750;50.804;8.764;2022-08-02T08:42:56;1.20;;;1.10;;
25952;SDS011;13750;50.804;8.764;2022-08-02T08:45:22;0.90;;;0.90;;
25952;SDS011;13750;50.804;8.764;2022-08-02T08:47:51;0.90;;;0.90;;
25952;SDS011;13750;50.804;8.764;2022-08-02T08:50:24;0.60;;;0.60;;
25952;SDS011;13750;50.804;8.764;2022-08-02T08:53:00;0.80;;;0.80;;
25952;SDS011;13750;50.804;8.764;2022-08-02T08:55:31;1.00;;;1.00;;
25952;SDS011;13750;50.804;8.764;2022-08-02T08:57:58;0.82;;;0.82;;
25952;SDS011;13750;50.804;8.764;2022-08-02T09:00:25;0.70;;;0.70;;
25952;SDS011;13750;50.804;8.764;2022-08-02T09:02:51;0.60;;;0.60;;
25952;SDS011;13750;50.804;8.764;2022-08-02T09:05:17;0.90;;;0.90;;
25952;SDS011;13750;50.804;8.764;2022-08-02T09:07:46;0.85;;;0.80;;
25952;SDS011;13750;50.804;8.764;2022-08-02T09:15:41;1.50;;;1.23;;
25952;SDS011;13750;50.804;8.764;2022-08-02T09:18:10;1.20;;;1.10;;
25952;SDS011;13750;50.804;8.764;2022-08-02T09:20:55;1.10;;;1.00;;
25952;SDS011;13750;50.804;8.764;2022-08-02T09:23:23;1.00;;;1.00;;
25952;SDS011;13750;50.804;8.764;2022-08-02T09:25:54;1.75;;;1.17;;
25952;SDS011;13750;50.804;8.764;2022-08-02T09:28:27;1.05;;;1.05;;
25952;SDS011;13750;50.804;8.764;2022-08-02T09:31:12;1.17;;;1.08;;
25952;SDS011;13750;50.804;8.764;2022-08-02T09:33:42;1.13;;;0.90;;
25952;SDS011;13750;50.804;8.764;2022-08-02T09:36:13;1.27;;;0.98;;
25952;SDS011;13750;50.804;8.764;2022-08-02T09:38:41;1.50;;;1.30;;
25952;SDS011;13750;50.804;8.764;2022-08-02T09:41:26;1.20;;;1.10;;
25952;SDS011;13750;50.804;8.764;2022-08-02T09:43:57;1.15;;;1.05;;
25952;SDS011;13750;50.804;8.764;2022-08-02T09:46:24;1.60;;;1.20;;
25952;SDS011;13750;50.804;8.764;2022-08-02T09:51:28;1.25;;;1.10;;
25952;SDS011;13750;50.804;8.764;2022-08-02T09:53:56;1.00;;;0.90;;
25952;SDS011;13750;50.804;8.764;2022-08-02T09:56:27;1.25;;;1.15;;
25952;SDS011;13750;50.804;8.764;2022-08-02T09:59:07;0.98;;;0.93;;
25952;SDS011;13750;50.804;8.764;2022-08-02T10:01:34;0.80;;;0.80;;
25952;SDS011;13750;50.804;8.764;2022-08-02T10:04:01;1.92;;;1.42;;
25952;SDS011;13750;50.804;8.764;2022-08-02T10:06:29;1.40;;;1.30;;
25952;SDS011;13750;50.804;8.764;2022-08-02T10:08:55;2.15;;;1.10;;
25952;SDS011;13750;50.804;8.764;2022-08-02T10:11:21;1.30;;;1.20;;
25952;SDS011;13750;50.804;8.764;2022-08-02T10:13:48;1.42;;;1.33;;
25952;SDS011;13750;50.804;8.764;2022-08-02T10:16:15;1.30;;;1.20;;
25952;SDS011;13750;50.804;8.764;2022-08-02T10:18:43;1.20;;;1.10;;
25952;SDS011;13750;50.804;8.764;2022-08-02T10:21:19;1.50;;;1.40;;
25952;SDS011;13750;50.804;8.764;2022-08-02T10:23:45;1.30;;;1.20;;
25952;SDS011;13750;50.804;8.764;2022-08-02T10:26:14;1.33;;;1.00;;
25952;SDS011;13750;50.804;8.764;2022-08-02T10:28:41;1.17;;;1.08;;
25952;SDS011;13750;50.804;8.764;2022-08-02T10:31:09;1.20;;;1.10;;
25952;SDS011;13750;50.804;8.764;2022-08-02T10:33:38;0.90;;;0.90;;
25952;SDS011;13750;50.804;8.764;2022-08-02T10:36:06;0.90;;;0.90;;
25952;SDS011;13750;50.804;8.764;2022-08-02T10:38:33;1.10;;;1.00;;
25952;SDS011;13750;50.804;8.764;2022-08-02T10:54:27;1.20;;;1.10;;
25952;SDS011;13750;50.804;8.764;2022-08-02T10:56:57;1.05;;;0.95;;
25952;SDS011;13750;50.804;8.764;2022-08-02T11:01:51;1.30;;;1.20;;
25952;SDS011;13750;50.804;8.764;2022-08-02T11:04:25;1.10;;;1.00;;
25952;SDS011;13750;50.804;8.764;2022-08-02T11:07:05;1.10;;;1.00;;
25952;SDS011;13750;50.804;8.764;2022-08-02T11:09:38;0.90;;;0.90;;
25952;SDS011;13750;50.804;8.764;2022-08-02T11:14:36;1.13;;;0.90;;
25952;SDS011;13750;50.804;8.764;2022-08-02T11:19:30;1.13;;;1.00;;
25952;SDS011;13750;50.804;8.764;2022-08-02T11:22:05;1.05;;;0.95;;
25952;SDS011;13750;50.804;8.764;2022-08-02T11:24:34;1.75;;;0.80;;
25952;SDS011;13750;50.804;8.764;2022-08-02T11:27:01;1.73;;;1.27;;
25952;SDS011;13750;50.804;8.764;2022-08-02T11:29:32;2.17;;;1.40;;
25952;SDS011;13750;50.804;8.764;2022-08-02T11:32:16;1.45;;;1.20;;
25952;SDS011;13750;50.804;8.764;2022-08-02T11:34:47;1.17;;;1.08;;
25952;SDS011;13750;50.804;8.764;2022-08-02T11:37:33;1.40;;;1.10;;
25952;SDS011;13750;50.804;8.764;2022-08-02T11:40:00;1.42;;;1.20;;
25952;SDS011;13750;50.804;8.764;2022-08-02T11:42:31;1.30;;;1.20;;
25952;SDS011;13750;50.804;8.764;2022-08-02T11:45:03;1.25;;;1.15;;
25952;SDS011;13750;50.804;8.764;2022-08-02T11:47:29;1.60;;;1.25;;
25952;SDS011;13750;50.804;8.764;2022-08-02T11:50:05;1.85;;;1.20;;
25952;SDS011;13750;50.804;8.764;2022-08-02T11:52:33;1.23;;;1.13;;
25952;SDS011;13750;50.804;8.764;2022-08-02T11:54:59;1.23;;;1.13;;
25952;SDS011;13750;50.804;8.764;2022-08-02T11:57:25;2.13;;;1.08;;
25952;SDS011;13750;50.804;8.764;2022-08-02T11:59:51;0.80;;;0.80;;
25952;SDS011;13750;50.804;8.764;2022-08-02T12:02:22;1.42;;;1.20;;
25952;SDS011;13750;50.804;8.764;2022-08-02T12:04:53;1.40;;;1.30;;
25952;SDS011;13750;50.804;8.764;2022-08-02T12:07:27;0.85;;;0.85;;
25952;SDS011;13750;50.804;8.764;2022-08-02T12:09:58;1.02;;;0.93;;
25952;SDS011;13750;50.804;8.764;2022-08-02T12:12:25;0.90;;;0.90;;
25952;SDS011;13750;50.804;8.764;2022-08-02T12:14:50;0.95;;;0.90;;
25952;SDS011;13750;50.804;8.764;2022-08-02T12:17:25;1.17;;;0.87;;
25952;SDS011;13750;50.804;8.764;2022-08-02T12:20:10;0.95;;;0.90;;
25952;SDS011;13750;50.804;8.764;2022-08-02T12:22:37;1.10;;;1.00;;
25952;SDS011;13750;50.804;8.764;2022-08-02T12:25:14;1.38;;;1.10;;
25952;SDS011;13750;50.804;8.764;2022-08-02T12:27:42;0.82;;;0.82;;
25952;SDS011;13750;50.804;8.764;2022-08-02T12:30:08;1.27;;;1.03;;
25952;SDS011;13750;50.804;8.764;2022-08-02T12:32:36;0.82;;;0.82;;
25952;SDS011;13750;50.804;8.764;2022-08-02T12:35:03;0.90;;;0.85;;
25952;SDS011;13750;50.804;8.764;2022-08-02T12:37:34;1.27;;;1.15;;
25952;SDS011;13750;50.804;8.764;2022-08-02T12:42:48;0.98;;;0.98;;
25952;SDS011;13750;50.804;8.764;2022-08-02T12:45:14;1.00;;;0.90;;
25952;SDS011;13750;50.804;8.764;2022-08-02T12:47:46;0.85;;;0.85;;
25952;SDS011;13750;50.804;8.764;2022-08-02T12:50:19;0.75;;;0.75;;
25952;SDS011;13750;50.804;8.764;2022-08-02T12:52:48;1.48;;;1.13;;
25952;SDS011;13750;50.804;8.764;2022-08-02T12:55:19;1.20;;;1.10;;
25952;SDS011;13750;50.804;8.764;2022-08-02T12:57:51;1.30;;;1.20;;
25952;SDS011;13750;50.804;8.764;2022-08-02T13:00:33;1.10;;;1.00;;
25952;SDS011;13750;50.804;8.764;2022-08-02T13:03:01;1.40;;;1.10;;
25952;SDS011;13750;50.804;8.764;2022-08-02T13:05:28;1.00;;;0.90;;
25952;SDS011;13750;50.804;8.764;2022-08-02T13:07:55;1.20;;;1.10;;
25952;SDS011;13750;50.804;8.764;2022-08-02T13:10:22;1.00;;;0.90;;
25952;SDS011;13750;50.804;8.764;2022-08-02T13:12:49;1.15;;;1.05;;
25952;SDS011;13750;50.804;8.764;2022-08-02T13:15:16;1.05;;;1.02;;
25952;SDS011;13750;50.804;8.764;2022-08-02T13:20:08;0.80;;;0.80;;
25952;SDS011;13750;50.804;8.764;2022-08-02T13:22:34;1.17;;;1.08;;
25952;SDS011;13750;50.804;8.764;2022-08-02T13:25:01;1.00;;;0.90;;
25952;SDS011;13750;50.804;8.764;2022-08-02T13:27:28;1.10;;;1.00;;
25952;SDS011;13750;50.804;8.764;2022-08-02T13:29:54;1.13;;;0.90;;
25952;SDS011;13750;50.804;8.764;2022-08-02T13:32:21;0.90;;;0.90;;
25952;SDS011;13750;50.804;8.764;2022-08-02T13:34:47;1.38;;;1.17;;
25952;SDS011;13750;50.804;8.764;2022-08-02T13:37:13;1.15;;;1.05;;
25952;SDS011;13750;50.804;8.764;2022-08-02T13:39:39;1.30;;;1.20;;
25952;SDS011;13750;50.804;8.764;2022-08-02T13:42:05;1.20;;;1.10;;
25952;SDS011;13750;50.804;8.764;2022-08-02T13:44:31;0.90;;;0.90;;
25952;SDS011;13750;50.804;8.764;2022-08-02T13:46:57;1.67;;;1.20;;
25952;SDS011;13750;50.804;8.764;2022-08-02T13:49:22;1.20;;;1.10;;
25952;SDS011;13750;50.804;8.764;2022-08-02T13:51:48;1.73;;;1.10;;
25952;SDS011;13750;50.804;8.764;2022-08-02T13:54:14;2.23;;;1.30;;
25952;SDS011;13750;50.804;8.764;2022-08-02T13:56:40;1.83;;;1.00;;
25952;SDS011;13750;50.804;8.764;2022-08-02T13:59:05;0.83;;;0.83;;
25952;SDS011;13750;50.804;8.764;2022-08-02T14:01:31;0.80;;;0.80;;
25952;SDS011;13750;50.804;8.764;2022-08-02T14:03:57;1.10;;;1.00;;
25952;SDS011;13750;50.804;8.764;2022-08-02T14:06:24;1.90;;;1.15;;
25952;SDS011;13750;50.804;8.764;2022-08-02T14:08:49;1.65;;;1.10;;
25952;SDS011;13750;50.804;8.764;2022-08-02T14:11:16;1.35;;;1.10;;
25952;SDS011;13750;50.804;8.764;2022-08-02T14:13:42;1.05;;;0.90;;
25952;SDS011;13750;50.804;8.764;2022-08-02T14:16:07;0.80;;;0.80;;
25952;SDS011;13750;50.804;8.764;2022-08-02T14:18:33;1.45;;;0.82;;
25952;SDS011;13750;50.804;8.764;2022-08-02T14:20:59;1.35;;;0.80;;
25952;SDS011;13750;50.804;8.764;2022-08-02T14:23:24;1.20;;;1.10;;
25952;SDS011;13750;50.804;8.764;2022-08-02T14:25:51;1.27;;;0.80;;
25952;SDS011;13750;50.804;8.764;2022-08-02T14:28:16;0.97;;;0.90;;
25952;SDS011;13750;50.804;8.764;2022-08-02T14:30:42;1.20;;;1.00;;
25952;SDS011;13750;50.804;8.764;2022-08-02T14:33:07;0.77;;;0.77;;
25952;SDS011;13750;50.804;8.764;2022-08-02T14:35:33;1.00;;;0.90;;
25952;SDS011;13750;50.804;8.764;2022-08-02T14:37:59;1.10;;;0.93;;
25952;SDS011;13750;50.804;8.764;2022-08-02T14:40:25;0.88;;;0.80;;
25952;SDS011;13750;50.804;8.764;2022-08-02T14:42:51;1.20;;;0.82;;
25952;SDS011;13750;50.804;8.764;2022-08-02T14:47:45;0.80;;;0.80;;
25952;SDS011;13750;50.804;8.764;2022-08-02T14:50:12;0.93;;;0.82;;
25952;SDS011;13750;50.804;8.764;2022-08-02T14:52:38;0.80;;;0.80;;
25952;SDS011;13750;50.804;8.764;2022-08-02T14:55:04;1.27;;;0.88;;
25952;SDS011;13750;50.804;8.764;2022-08-02T14:57:30;1.10;;;1.00;;
25952;SDS011;13750;50.804;8.764;2022-08-02T15:02:24;1.00;;;0.90;;
25952;SDS011;13750;50.804;8.764;2022-08-02T15:04:51;0.73;;;0.73;;
25952;SDS011;13750;50.804;8.764;2022-08-02T15:07:17;0.90;;;0.82;;
25952;SDS011;13750;50.804;8.764;2022-08-02T15:09:42;0.63;;;0.63;;
25952;SDS011;13750;50.804;8.764;2022-08-02T15:12:09;0.70;;;0.70;;
25952;SDS011;13750;50.804;8.764;2022-08-02T15:14:35;1.02;;;0.60;;
25952;SDS011;13750;50.804;8.764;2022-08-02T15:17:02;1.00;;;0.90;;
25952;SDS011;13750;50.804;8.764;2022-08-02T15:19:28;0.80;;;0.80;;
25952;SDS011;13750;50.804;8.764;2022-08-02T15:21:54;0.73;;;0.73;;
25952;SDS011;13750;50.804;8.764;2022-08-02T15:24:20;1.07;;;0.90;;
25952;SDS011;13750;50.804;8.764;2022-08-02T15:26:45;0.60;;;0.60;;
25952;SDS011;13750;50.804;8.764;2022-08-02T15:29:12;0.52;;;0.52;;
25952;SDS011;13750;50.804;8.764;2022-08-02T15:31:37;0.73;;;0.70;;
25952;SDS011;13750;50.804;8.764;2022-08-02T15:34:03;0.68;;;0.68;;
25952;SDS011;13750;50.804;8.764;2022-08-02T15:36:30;0.95;;;0.80;;
25952;SDS011;13750;50.804;8.764;2022-08-02T15:38:55;0.80;;;0.80;;
25952;SDS011;13750;50.804;8.764;2022-08-02T15:41:22;0.80;;;0.70;;
25952;SDS011;13750;50.804;8.764;2022-08-02T15:43:47;0.77;;;0.68;;
25952;SDS011;13750;50.804;8.764;2022-08-02T15:46:13;1.20;;;0.70;;
25952;SDS011;13750;50.804;8.764;2022-08-02T15:48:38;1.57;;;1.10;;
25952;SDS011;13750;50.804;8.764;2022-08-02T15:51:04;1.42;;;1.00;;
25952;SDS011;13750;50.804;8.764;2022-08-02T15:53:30;0.90;;;0.83;;
25952;SDS011;13750;50.804;8.764;2022-08-02T15:55:55;0.80;;;0.80;;
25952;SDS011;13750;50.804;8.764;2022-08-02T15:58:21;0.80;;;0.80;;
25952;SDS011;13750;50.804;8.764;2022-08-02T16:00:46;0.70;;;0.70;;
25952;SDS011;13750;50.804;8.764;2022-08-02T16:03:12;1.10;;;0.90;;
25952;SDS011;13750;50.804;8.764;2022-08-02T16:05:38;0.85;;;0.85;;
25952;SDS011;13750;50.804;8.764;2022-08-02T16:08:04;0.70;;;0.70;;
25952;SDS011;13750;50.804;8.764;2022-08-02T16:10:29;0.73;;;0.73;;
25952;SDS011;13750;50.804;8.764;2022-08-02T16:12:55;0.90;;;0.90;;
25952;SDS011;13750;50.804;8.764;2022-08-02T16:15:40;0.60;;;0.60;;
25952;SDS011;13750;50.804;8.764;2022-08-02T16:18:05;0.55;;;0.55;;
25952;SDS011;13750;50.804;8.764;2022-08-02T16:20:31;1.07;;;0.80;;